createdAt,value
2024-04-18T00:02:08.278Z,76.14
2024-04-18T00:05:14.618Z,75.94
2024-04-18T00:08:19.816Z,75.79
2024-04-18T00:11:25.635Z,75.98
2024-04-18T00:14:30.730Z,76.91
2024-04-18T00:17:55.982Z,76.66
2024-04-18T00:21:01.219Z,76.80
2024-04-18T00:24:26.956Z,76.85
2024-04-18T00:27:32.351Z,76.52
2024-04-18T00:30:36.004Z,76.91
2024-04-18T00:33:41.116Z,77.02
2024-04-18T00:37:06.815Z,77.03
2024-04-18T00:40:30.447Z,76.49
2024-04-18T00:43:55.252Z,77.87
2024-04-18T00:47:08.440Z,77.75
2024-04-18T00:50:14.636Z,77.26
2024-04-18T00:53:17.908Z,76.90
2024-04-18T00:56:27.737Z,76.50
2024-04-18T00:59:51.608Z,77.33
2024-04-18T01:02:57.111Z,77.67
2024-04-18T01:06:11.738Z,77.55
2024-04-18T01:09:33.392Z,78.01
2024-04-18T01:12:58.952Z,78.26
2024-04-18T01:16:24.191Z,77.47
2024-04-18T01:19:26.743Z,78.61
2024-04-18T01:22:32.348Z,77.22
2024-04-18T01:25:34.786Z,77.77
2024-04-18T01:28:43.152Z,77.70
2024-04-18T01:32:08.447Z,77.48
2024-04-18T01:35:11.432Z,77.11
2024-04-18T01:38:25.861Z,77.32
2024-04-18T01:41:28.772Z,77.01
2024-04-18T01:44:42.672Z,78.04
2024-04-18T01:48:08.589Z,77.46
2024-04-18T01:51:37.141Z,77.69
2024-04-18T01:55:02.948Z,77.64
2024-04-18T01:58:14.031Z,77.21
2024-04-18T02:01:24.709Z,77.87
2024-04-18T02:04:30.092Z,77.23
2024-04-18T02:07:35.689Z,77.94
2024-04-18T02:10:38.237Z,77.48
2024-04-18T02:13:43.855Z,77.47
2024-04-18T02:16:48.920Z,77.74
2024-04-18T02:20:05.014Z,77.88
2024-04-18T02:23:19.058Z,77.80
2024-04-18T02:26:28.250Z,77.55
2024-04-18T02:29:33.489Z,77.97
2024-04-18T02:32:40.068Z,78.18
2024-04-18T02:35:52.442Z,78.31
2024-04-18T02:39:14.252Z,77.57
2024-04-18T02:42:20.443Z,77.62
2024-04-18T02:45:35.361Z,77.29
2024-04-18T02:49:02.057Z,77.25
2024-04-18T02:52:05.814Z,77.16
2024-04-18T02:55:23.239Z,77.18
2024-04-18T02:58:32.245Z,77.06
2024-04-18T03:01:57.570Z,77.15
2024-04-18T03:05:05.761Z,77.03
2024-04-18T03:08:09.785Z,76.66
2024-04-18T03:11:23.900Z,76.73
2024-04-18T03:14:44.865Z,76.89
2024-04-18T03:17:54.760Z,76.64
2024-04-18T03:21:13.786Z,76.79
2024-04-18T03:24:21.603Z,76.85
2024-04-18T03:27:24.537Z,76.84
2024-04-18T03:30:29.872Z,76.74
2024-04-18T03:33:44.935Z,76.90
2024-04-18T03:36:54.020Z,76.75
2024-04-18T03:40:10.559Z,76.94
2024-04-18T03:43:15.833Z,76.80
2024-04-18T03:46:21.350Z,76.85
2024-04-18T03:49:37.128Z,76.76
2024-04-18T03:52:42.672Z,76.77
2024-04-18T03:56:06.983Z,76.81
2024-04-18T03:59:09.792Z,77.09
2024-04-18T04:02:14.969Z,77.06
2024-04-18T04:05:21.548Z,77.68
2024-04-18T04:08:29.432Z,77.58
2024-04-18T04:11:50.261Z,77.36
2024-04-18T04:14:53.213Z,77.19
2024-04-18T04:17:59.243Z,77.04
2024-04-18T04:21:16.540Z,76.81
2024-04-18T04:24:25.201Z,76.94
2024-04-18T04:27:27.951Z,76.71
2024-04-18T04:30:33.755Z,77.25
2024-04-18T04:33:36.430Z,77.10
2024-04-18T04:36:42.197Z,77.12
2024-04-18T04:39:50.559Z,77.54
2024-04-18T04:43:00.625Z,76.55
2024-04-18T04:46:03.609Z,76.77
2024-04-18T04:49:15.383Z,76.46
2024-04-18T04:52:38.489Z,76.65
2024-04-18T04:55:56.467Z,76.38
2024-04-18T04:59:01.611Z,76.33
2024-04-18T05:02:05.286Z,76.58
2024-04-18T05:05:28.647Z,76.55
2024-04-18T05:08:40.676Z,76.38
2024-04-18T05:11:48.960Z,76.11
2024-04-18T05:15:10.186Z,76.29
2024-04-18T05:18:34.505Z,76.26
2024-04-18T05:21:37.121Z,76.34
2024-04-18T05:25:01.410Z,75.98
2024-04-18T05:28:12.554Z,76.57
2024-04-18T05:31:18.332Z,76.25
2024-04-18T05:34:23.542Z,75.70
2024-04-18T05:37:29.684Z,75.71
2024-04-18T05:40:35.027Z,75.61
2024-04-18T05:43:43.381Z,75.35
2024-04-18T05:46:48.625Z,75.63
2024-04-18T05:49:54.112Z,75.20
2024-04-18T05:52:59.816Z,75.22
2024-04-18T05:56:25.258Z,74.93
2024-04-18T05:59:33.109Z,74.95
2024-04-18T06:02:38.709Z,75.15
2024-04-18T06:05:44.010Z,74.70
2024-04-18T06:08:55.648Z,74.51
2024-04-18T06:12:00.980Z,74.84
2024-04-18T06:15:09.779Z,74.64
2024-04-18T06:18:14.931Z,74.47
2024-04-18T06:21:20.851Z,74.32
2024-04-18T06:24:28.010Z,73.81
2024-04-18T06:27:53.546Z,74.11
2024-04-18T06:31:01.468Z,73.75
2024-04-18T06:34:07.448Z,73.60
2024-04-18T06:37:13.224Z,73.57
2024-04-18T06:40:22.219Z,73.25
2024-04-18T06:43:27.352Z,72.74
2024-04-18T06:46:45.331Z,72.73
2024-04-18T06:49:59.790Z,72.18
2024-04-18T06:53:05.653Z,72.28
2024-04-18T06:56:10.844Z,71.92
2024-04-18T06:59:16.522Z,72.04
2024-04-18T07:02:24.653Z,70.64
2024-04-18T07:05:50.953Z,70.98
2024-04-18T07:08:59.106Z,70.80
2024-04-18T07:12:23.551Z,70.57
2024-04-18T07:15:48.712Z,70.53
2024-04-18T07:19:15.727Z,70.21
2024-04-18T07:22:32.543Z,70.08
2024-04-18T07:25:39.847Z,69.66
2024-04-18T07:29:05.393Z,69.56
2024-04-18T07:32:10.547Z,69.73
2024-04-18T07:35:19.015Z,69.54
2024-04-18T07:38:24.509Z,69.39
2024-04-18T07:41:30.213Z,69.57
2024-04-18T07:44:35.617Z,69.30
2024-04-18T07:47:42.292Z,68.89
2024-04-18T07:50:50.432Z,68.26
2024-04-18T07:53:55.960Z,68.50
2024-04-18T07:57:01.783Z,68.01
2024-04-18T08:00:09.414Z,68.17
2024-04-18T08:03:19.947Z,68.16
2024-04-18T08:06:32.630Z,68.16
2024-04-18T08:09:42.388Z,66.80
2024-04-18T08:12:53.402Z,67.17
2024-04-18T08:16:00.587Z,67.20
2024-04-18T08:19:06.284Z,66.68
2024-04-18T08:22:14.496Z,66.08
2024-04-18T08:25:20.136Z,65.79
2024-04-18T08:28:25.351Z,65.57
2024-04-18T08:31:35.463Z,65.76
2024-04-18T08:34:43.237Z,65.64
2024-04-18T08:37:53.151Z,65.57
2024-04-18T08:41:11.509Z,66.04
2024-04-18T08:44:18.445Z,64.83
2024-04-18T08:47:24.635Z,65.01
2024-04-18T08:50:32.999Z,64.54
2024-04-18T08:53:41.070Z,63.99
2024-04-18T08:56:51.780Z,62.02
2024-04-18T09:00:03.016Z,64.29
2024-04-18T09:03:09.496Z,63.93
2024-04-18T09:06:18.326Z,64.16
2024-04-18T09:09:29.234Z,62.66
2024-04-18T09:12:34.468Z,63.13
2024-04-18T09:15:41.428Z,61.24
2024-04-18T09:18:50.407Z,62.46
2024-04-18T09:21:56.054Z,62.53
2024-04-18T09:25:07.910Z,62.98
2024-04-18T09:28:13.572Z,63.34
2024-04-18T09:31:27.694Z,63.34
2024-04-18T09:34:42.716Z,63.46
2024-04-18T09:37:53.495Z,63.42
2024-04-18T09:41:15.538Z,62.88
2024-04-18T09:44:26.329Z,62.79
2024-04-18T09:47:35.346Z,62.76
2024-04-18T09:50:41.674Z,60.88
2024-04-18T09:53:48.656Z,61.42
2024-04-18T09:56:58.203Z,61.48
2024-04-18T10:00:05.443Z,61.16
2024-04-18T10:03:17.020Z,60.87
2024-04-18T10:06:26.881Z,60.45
2024-04-18T10:09:33.729Z,60.11
2024-04-18T10:12:44.664Z,60.18
2024-04-18T10:15:49.988Z,60.90
2024-04-18T10:18:56.053Z,60.71
2024-04-18T10:22:16.812Z,59.16
2024-04-18T10:25:29.059Z,59.67
2024-04-18T10:28:37.095Z,58.67
2024-04-18T10:31:42.712Z,57.59
2024-04-18T10:34:48.643Z,58.86
2024-04-18T10:37:56.906Z,59.23
2024-04-18T10:41:06.136Z,57.99
2024-04-18T10:44:16.379Z,58.25
2024-04-18T10:47:23.900Z,58.12
2024-04-18T10:50:30.230Z,58.45
2024-04-18T10:53:37.170Z,58.47
2024-04-18T10:56:42.740Z,58.40
2024-04-18T10:59:50.801Z,58.67
2024-04-18T11:03:00.481Z,58.62
2024-04-18T11:06:06.728Z,58.33
2024-04-18T11:09:12.487Z,58.37
2024-04-18T11:12:18.865Z,57.29
2024-04-18T11:15:27.569Z,57.13
2024-04-18T11:18:33.086Z,56.67
2024-04-18T11:21:38.988Z,55.73
2024-04-18T11:24:45.248Z,54.52
2024-04-18T11:27:50.869Z,54.73
2024-04-18T11:30:59.423Z,54.58
2024-04-18T11:34:05.230Z,55.79
2024-04-18T11:44:56.561Z,55.50
2024-04-18T11:48:05.137Z,54.55
2024-04-18T11:51:10.541Z,54.14
2024-04-18T11:54:16.129Z,53.19
2024-04-18T11:57:21.533Z,52.61
2024-04-18T12:00:30.623Z,51.79
2024-04-18T12:03:47.771Z,50.72
2024-04-18T12:07:08.784Z,51.16
2024-04-18T12:10:13.979Z,50.76
2024-04-18T12:13:19.646Z,50.16
2024-04-18T12:16:31.851Z,48.75
2024-04-18T12:19:56.180Z,49.49
2024-04-18T12:23:11.432Z,48.34
2024-04-18T12:26:37.055Z,47.21
2024-04-18T12:29:44.040Z,47.02
2024-04-18T12:32:51.037Z,48.04
2024-04-18T12:36:09.477Z,49.69
2024-04-18T12:39:17.241Z,50.74
2024-04-18T12:42:23.307Z,51.27
2024-04-18T12:45:29.913Z,51.05
2024-04-18T12:48:36.837Z,49.47
2024-04-18T12:51:46.578Z,49.85
2024-04-18T12:54:53.460Z,50.88
2024-04-18T12:58:02.843Z,50.61
2024-04-18T13:01:15.413Z,50.46
2024-04-18T13:04:21.063Z,50.31
2024-04-18T13:07:30.357Z,46.52
2024-04-18T13:10:55.131Z,45.24
2024-04-18T13:14:05.520Z,41.59
2024-04-18T13:17:10.734Z,39.47
2024-04-18T13:20:25.353Z,37.23
2024-04-18T13:23:33.321Z,36.33
2024-04-18T13:26:38.997Z,35.74
2024-04-18T13:29:56.074Z,38.76
2024-04-18T13:33:11.793Z,41.56
2024-04-18T13:36:17.189Z,43.46
2024-04-18T13:39:42.066Z,43.58
2024-04-18T13:42:47.281Z,46.50
2024-04-18T13:46:07.167Z,47.55
2024-04-18T13:49:12.772Z,47.47
2024-04-18T13:52:30.930Z,47.24
2024-04-18T13:55:44.894Z,47.37
2024-04-18T13:58:50.467Z,47.94
2024-04-18T14:02:05.689Z,47.74
2024-04-18T14:05:21.278Z,47.88
2024-04-18T14:08:42.352Z,48.09
2024-04-18T14:12:10.548Z,48.18
2024-04-18T14:15:29.481Z,48.64
2024-04-18T14:18:53.187Z,48.82
2024-04-18T14:22:13.852Z,48.72
2024-04-18T14:25:19.427Z,45.39
2024-04-18T14:28:47.879Z,44.37
2024-04-18T14:32:01.358Z,40.41
2024-04-18T14:35:26.588Z,39.20
2024-04-18T14:38:42.096Z,40.96
2024-04-18T14:41:48.029Z,40.73
2024-04-18T14:44:55.761Z,34.64
2024-04-18T14:48:01.762Z,41.20
2024-04-18T14:51:22.416Z,43.26
2024-04-18T14:54:28.705Z,44.05
2024-04-18T14:57:34.924Z,44.95
2024-04-18T15:00:58.684Z,45.67
2024-04-18T15:04:04.324Z,42.95
2024-04-18T15:07:30.379Z,38.50
2024-04-18T15:10:35.863Z,35.78
2024-04-18T15:13:41.423Z,34.01
2024-04-18T15:17:09.757Z,29.48
2024-04-18T15:20:15.722Z,31.56
2024-04-18T15:23:40.878Z,32.01
2024-04-18T15:27:03.944Z,30.53
2024-04-18T15:30:10.464Z,33.04
2024-04-18T15:33:18.994Z,35.80
2024-04-18T15:36:24.227Z,35.32
2024-04-18T15:39:30.090Z,33.95
2024-04-18T15:42:55.245Z,35.00
2024-04-18T15:46:07.382Z,37.68
2024-04-18T15:49:15.818Z,39.81
2024-04-18T15:52:24.186Z,42.10
2024-04-18T15:55:29.894Z,43.29
2024-04-18T15:58:35.577Z,44.19
2024-04-18T16:01:52.092Z,43.23
2024-04-18T16:05:25.422Z,40.96
2024-04-18T16:08:46.060Z,41.15
2024-04-18T16:12:12.102Z,41.91
2024-04-18T16:15:37.262Z,43.12
2024-04-18T16:18:42.948Z,40.83
2024-04-18T16:22:10.772Z,38.74
2024-04-18T16:25:25.998Z,40.30
2024-04-18T16:28:31.408Z,41.65
2024-04-18T16:31:40.032Z,42.83
2024-04-18T16:34:54.446Z,44.37
2024-04-18T16:38:13.850Z,45.38
2024-04-18T16:41:29.543Z,45.85
2024-04-18T16:44:35.116Z,46.85
2024-04-18T16:47:47.461Z,47.46
2024-04-18T16:50:53.109Z,47.95
2024-04-18T16:54:02.270Z,48.63
2024-04-18T16:57:36.976Z,48.65
2024-04-18T17:00:43.355Z,49.16
2024-04-18T17:03:52.697Z,49.32
2024-04-18T17:07:10.881Z,49.99
2024-04-18T17:10:37.793Z,51.23
2024-04-18T17:14:02.265Z,50.10
2024-04-18T17:17:08.092Z,50.62
2024-04-18T17:20:32.554Z,50.26
2024-04-18T17:23:37.953Z,50.48
2024-04-18T17:26:46.311Z,50.37
2024-04-18T17:29:51.746Z,50.54
2024-04-18T17:32:57.670Z,51.40
2024-04-18T17:36:03.804Z,50.95
2024-04-18T17:39:24.844Z,51.23
2024-04-18T17:42:32.991Z,51.73
2024-04-18T17:45:38.771Z,52.41
2024-04-18T17:48:53.370Z,53.82
2024-04-18T17:51:59.173Z,53.05
2024-04-18T17:55:04.659Z,52.84
2024-04-18T17:58:13.233Z,53.15
2024-04-18T18:01:19.831Z,54.76
2024-04-18T18:04:46.212Z,54.39
2024-04-18T18:07:51.776Z,54.79
2024-04-18T18:11:17.366Z,56.26
2024-04-18T18:14:25.252Z,56.02
2024-04-18T18:17:37.151Z,55.28
2024-04-18T18:20:42.625Z,56.17
2024-04-18T18:23:48.544Z,59.07
2024-04-18T18:27:13.075Z,57.19
2024-04-18T18:30:18.825Z,57.14
2024-04-18T18:33:24.211Z,58.70
2024-04-18T18:36:30.007Z,57.70
2024-04-18T18:39:36.010Z,57.84
2024-04-18T18:42:39.044Z,59.91
2024-04-18T18:45:47.149Z,58.43
2024-04-18T18:48:52.975Z,61.34
2024-04-18T18:51:55.688Z,61.21
2024-04-18T18:55:01.441Z,60.35
2024-04-18T18:58:05.215Z,61.02
2024-04-18T19:01:13.813Z,62.46
2024-04-18T19:04:16.856Z,61.34
2024-04-18T19:07:22.733Z,63.75
2024-04-18T19:10:28.221Z,60.97
2024-04-18T19:13:31.132Z,60.97
2024-04-18T19:16:39.231Z,61.01
2024-04-18T19:19:44.828Z,61.79
2024-04-18T19:22:48.589Z,61.65
2024-04-18T19:25:54.172Z,62.49
2024-04-18T19:28:59.505Z,61.70
2024-04-18T19:32:08.670Z,63.33
2024-04-18T19:35:14.947Z,65.36
2024-04-18T19:38:18.987Z,63.06
2024-04-18T19:41:30.142Z,64.91
2024-04-18T19:44:34.241Z,63.39
2024-04-18T19:47:42.756Z,64.38
2024-04-18T19:50:45.679Z,67.05
2024-04-18T19:54:03.131Z,64.04
2024-04-18T19:57:09.815Z,62.84
2024-04-18T20:00:16.711Z,63.85
2024-04-18T20:03:22.571Z,63.79
2024-04-18T20:06:28.186Z,65.01
2024-04-18T20:09:33.166Z,64.33
2024-04-18T20:12:39.420Z,63.39
2024-04-18T20:15:47.712Z,63.99
2024-04-18T20:18:53.262Z,65.20
2024-04-18T20:21:58.867Z,64.96
2024-04-18T20:25:01.616Z,64.73
2024-04-18T20:28:19.230Z,63.89
2024-04-18T20:31:22.582Z,65.86
2024-04-18T20:34:30.786Z,66.88
2024-04-18T20:37:33.551Z,65.26
2024-04-18T20:40:41.150Z,64.44
2024-04-18T20:43:44.070Z,68.04
2024-04-18T20:46:49.585Z,70.93
2024-04-18T20:49:56.308Z,68.48
2024-04-18T20:53:01.927Z,67.13
2024-04-18T20:56:05.263Z,68.04
2024-04-18T20:59:10.874Z,67.71
2024-04-18T21:02:13.622Z,66.29
2024-04-18T21:05:22.154Z,67.00
2024-04-18T21:08:24.953Z,67.17
2024-04-18T21:11:30.946Z,68.84
2024-04-18T21:14:41.460Z,67.46
2024-04-18T21:17:47.058Z,69.63
2024-04-18T21:20:55.940Z,69.00
2024-04-18T21:24:01.503Z,67.77
2024-04-18T21:27:24.998Z,67.10
2024-04-18T21:30:30.512Z,67.97
2024-04-18T21:33:33.216Z,68.44
2024-04-18T21:36:41.690Z,70.14
2024-04-18T21:39:44.491Z,69.83
2024-04-18T21:42:50.125Z,68.49
2024-04-18T21:45:52.885Z,68.53
2024-04-18T21:48:58.570Z,68.38
2024-04-18T21:52:07.268Z,70.51
2024-04-18T21:55:12.553Z,67.89
2024-04-18T21:58:19.107Z,67.27
2024-04-18T22:01:25.209Z,67.20
2024-04-18T22:04:30.924Z,66.95
2024-04-18T22:07:36.708Z,66.77
2024-04-18T22:10:42.131Z,66.39
2024-04-18T22:13:47.717Z,67.14
2024-04-18T22:16:50.307Z,68.62
2024-04-18T22:19:55.810Z,67.25
2024-04-18T22:23:04.913Z,69.06
2024-04-18T22:26:08.346Z,68.22
2024-04-18T22:29:13.795Z,68.60
2024-04-18T22:32:19.382Z,68.22
2024-04-18T22:35:22.113Z,70.04
2024-04-18T22:38:30.482Z,69.39
2024-04-18T22:41:35.650Z,70.74
2024-04-18T22:44:38.535Z,68.91
2024-04-18T22:47:44.292Z,72.63
2024-04-18T22:50:49.925Z,69.93
2024-04-18T22:53:58.279Z,71.23
2024-04-18T22:57:03.854Z,73.39
2024-04-18T23:00:08.995Z,73.45
2024-04-18T23:03:14.881Z,71.78
2024-04-18T23:06:17.591Z,70.93
2024-04-18T23:09:26.068Z,70.99
2024-04-18T23:12:31.307Z,72.47
2024-04-18T23:15:36.732Z,70.69
2024-04-18T23:18:44.659Z,72.42
2024-04-18T23:21:47.707Z,71.54
2024-04-18T23:25:14.009Z,74.74
2024-04-18T23:28:19.508Z,74.53
2024-04-18T23:31:22.166Z,72.19
2024-04-18T23:34:28.037Z,75.68
2024-04-18T23:37:39.142Z,73.65
2024-04-18T23:40:44.877Z,71.49
2024-04-18T23:43:50.216Z,73.16
2024-04-18T23:46:53.099Z,70.35
2024-04-18T23:49:58.515Z,72.68
2024-04-18T23:53:04.047Z,75.21
2024-04-18T23:56:09.726Z,72.98
2024-04-18T23:59:15.322Z,72.30
